Time;durP1;ratioP1;P1;durP2;ratioP2;P2;SDS_P1;SDS_P2;PMS_P1;PMS_P2;Temp;Humidity;BMP_temperature;BMP_pressure;BME280_temperature;BME280_humidity;BME280_pressure;Samples;Min_cycle;Max_cycle;Signal;HPM_P1;HPM_P2
2023/08/11 00:01:22;;;;;;;2.70;2.50;;;;;;;;;;5099561;28;20210;-65
2023/08/11 00:03:50;;;;;;;2.60;2.40;;;;;;;;;;5099681;28;20459;-65
2023/08/11 00:06:18;;;;;;;2.58;2.38;;;;;;;;;;5099408;28;20662;-66
2023/08/11 00:08:45;;;;;;;2.75;2.50;;;;;;;;;;5099557;28;20283;-65
2023/08/11 00:11:13;;;;;;;2.53;2.33;;;;;;;;;;5099296;28;20560;-65
2023/08/11 00:13:41;;;;;;;2.28;2.17;;;;;;;;;;5099176;28;20204;-65
2023/08/11 00:16:10;;;;;;;3.00;2.47;;;;;;;;;;5099286;28;20223;-65
2023/08/11 00:18:39;;;;;;;2.85;2.30;;;;;;;;;;5099385;28;20315;-65
2023/08/11 00:21:08;;;;;;;2.30;2.10;;;;;;;;;;5099336;28;20211;-65
2023/08/11 00:23:39;;;;;;;2.20;2.10;;;;;;;;;;5098884;28;20262;-65
2023/08/11 00:26:07;;;;;;;2.60;2.40;;;;;;;;;;5099173;28;20204;-65
2023/08/11 00:28:34;;;;;;;2.70;2.50;;;;;;;;;;5098837;28;20204;-65
2023/08/11 00:31:02;;;;;;;2.17;2.05;;;;;;;;;;5098971;28;20211;-65
2023/08/11 00:33:30;;;;;;;2.85;2.50;;;;;;;;;;5098716;28;20203;-65
2023/08/11 00:35:59;;;;;;;2.95;2.45;;;;;;;;;;5098805;28;20238;-65
2023/08/11 00:38:37;;;;;;;2.65;2.28;;;;;;;;;;5098509;28;20212;-65
2023/08/11 00:41:04;;;;;;;2.63;2.42;;;;;;;;;;5098820;28;20210;-65
2023/08/11 00:43:33;;;;;;;2.50;2.35;;;;;;;;;;5098566;28;20204;-65
2023/08/11 00:46:02;;;;;;;2.55;2.38;;;;;;;;;;5099073;28;20598;-65
2023/08/11 00:48:30;;;;;;;2.70;2.50;;;;;;;;;;5098511;28;20215;-65
2023/08/11 00:50:59;;;;;;;2.13;2.03;;;;;;;;;;5098492;28;20204;-65
2023/08/11 00:53:27;;;;;;;2.95;2.50;;;;;;;;;;5098515;28;20581;-65
2023/08/11 00:55:54;;;;;;;2.50;2.30;;;;;;;;;;5098654;28;20232;-65
2023/08/11 00:58:22;;;;;;;2.47;2.38;;;;;;;;;;5098781;28;20203;-65
2023/08/11 01:00:50;;;;;;;2.90;2.60;;;;;;;;;;5098313;28;20203;-66
2023/08/11 01:03:18;;;;;;;2.63;2.40;;;;;;;;;;5097757;28;20208;-65
2023/08/11 01:05:50;;;;;;;2.88;2.40;;;;;;;;;;5098447;28;20225;-65
2023/08/11 01:08:23;;;;;;;3.17;2.40;;;;;;;;;;5098340;28;20211;-65
2023/08/11 01:10:55;;;;;;;3.38;2.50;;;;;;;;;;5098243;28;20203;-65
2023/08/11 01:13:22;;;;;;;2.70;2.42;;;;;;;;;;5098551;28;20204;-66
2023/08/11 01:15:53;;;;;;;2.50;2.30;;;;;;;;;;5097901;28;20230;-66
2023/08/11 01:18:21;;;;;;;2.40;2.20;;;;;;;;;;5097597;28;20218;-65
2023/08/11 01:20:49;;;;;;;2.53;2.20;;;;;;;;;;5098362;28;20460;-65
2023/08/11 01:23:20;;;;;;;2.72;2.53;;;;;;;;;;5097908;28;20203;-65
2023/08/11 01:25:48;;;;;;;2.58;2.33;;;;;;;;;;5097831;28;20200;-65
2023/08/11 01:28:16;;;;;;;2.60;2.40;;;;;;;;;;5097885;28;20205;-65
2023/08/11 01:30:43;;;;;;;3.03;2.40;;;;;;;;;;5097586;28;20211;-65
2023/08/11 01:33:11;;;;;;;2.65;2.30;;;;;;;;;;5097119;28;20223;-65
2023/08/11 01:35:39;;;;;;;2.25;2.15;;;;;;;;;;5097655;28;20654;-65
2023/08/11 01:38:08;;;;;;;2.63;2.42;;;;;;;;;;5097637;28;20207;-66
2023/08/11 01:40:37;;;;;;;2.55;2.30;;;;;;;;;;5097529;28;20320;-65
2023/08/11 01:43:06;;;;;;;2.97;2.45;;;;;;;;;;5097260;28;20247;-65
2023/08/11 01:45:34;;;;;;;2.65;2.47;;;;;;;;;;5097430;28;20234;-65
2023/08/11 01:48:02;;;;;;;2.53;2.33;;;;;;;;;;5097297;28;20211;-65
2023/08/11 01:50:31;;;;;;;2.60;2.40;;;;;;;;;;5097520;28;20204;-65
2023/08/11 01:52:58;;;;;;;2.65;2.45;;;;;;;;;;5097543;28;20242;-65
2023/08/11 01:55:28;;;;;;;2.58;2.40;;;;;;;;;;5097688;28;20203;-65
2023/08/11 01:57:57;;;;;;;2.60;2.40;;;;;;;;;;5097740;28;20200;-65
2023/08/11 02:00:25;;;;;;;2.42;2.22;;;;;;;;;;5098083;28;20204;-65
2023/08/11 02:02:53;;;;;;;2.38;2.17;;;;;;;;;;5097615;28;20204;-65
2023/08/11 02:05:24;;;;;;;2.90;2.70;;;;;;;;;;5097845;28;20222;-66
2023/08/11 02:07:51;;;;;;;2.55;2.30;;;;;;;;;;5097682;28;20210;-65
2023/08/11 02:10:19;;;;;;;2.47;2.28;;;;;;;;;;5097754;28;20200;-65
2023/08/11 02:12:47;;;;;;;2.45;2.20;;;;;;;;;;5097603;28;20298;-65
2023/08/11 02:15:17;;;;;;;2.33;2.15;;;;;;;;;;5101308;28;20493;-65
2023/08/11 02:17:45;;;;;;;2.28;2.17;;;;;;;;;;5102050;28;20292;-65
2023/08/11 02:20:18;;;;;;;2.60;2.40;;;;;;;;;;5101856;28;20560;-65
2023/08/11 02:22:46;;;;;;;2.17;2.08;;;;;;;;;;5101925;28;20204;-65
2023/08/11 02:25:14;;;;;;;2.63;2.42;;;;;;;;;;5101183;28;20212;-65
2023/08/11 02:27:43;;;;;;;2.70;2.40;;;;;;;;;;5101751;28;20229;-65
2023/08/11 02:30:12;;;;;;;2.40;2.30;;;;;;;;;;5101144;28;20214;-65
2023/08/11 02:32:45;;;;;;;2.47;2.35;;;;;;;;;;5101400;28;20203;-65
2023/08/11 02:35:13;;;;;;;2.40;2.20;;;;;;;;;;5100724;28;20563;-65
2023/08/11 02:37:41;;;;;;;2.60;2.17;;;;;;;;;;5101022;28;20292;-65
2023/08/11 02:40:09;;;;;;;2.20;2.00;;;;;;;;;;5100953;28;20212;-65
2023/08/11 02:42:39;;;;;;;2.38;2.17;;;;;;;;;;5100712;28;20253;-65
2023/08/11 02:45:09;;;;;;;2.50;2.30;;;;;;;;;;5101387;28;20204;-66
2023/08/11 02:47:37;;;;;;;2.50;2.30;;;;;;;;;;5100958;28;20233;-65
2023/08/11 02:50:08;;;;;;;2.63;2.42;;;;;;;;;;5100974;28;20250;-65
2023/08/11 02:52:36;;;;;;;2.40;2.13;;;;;;;;;;5100513;28;20632;-66
2023/08/11 02:55:04;;;;;;;2.05;1.95;;;;;;;;;;5100535;28;20203;-65
2023/08/11 02:57:32;;;;;;;2.42;2.22;;;;;;;;;;5099778;28;20235;-65
2023/08/11 03:00:00;;;;;;;2.30;2.15;;;;;;;;;;5100902;28;20204;-65
2023/08/11 03:02:28;;;;;;;2.35;2.25;;;;;;;;;;5099790;28;20490;-65
2023/08/11 03:04:56;;;;;;;2.30;2.10;;;;;;;;;;5100632;28;20204;-65
2023/08/11 03:07:25;;;;;;;2.50;2.30;;;;;;;;;;5100523;28;20250;-65
2023/08/11 03:09:55;;;;;;;2.30;2.20;;;;;;;;;;5100789;28;20246;-65
2023/08/11 03:12:23;;;;;;;2.38;2.17;;;;;;;;;;5100402;28;20203;-65
2023/08/11 03:14:52;;;;;;;2.15;2.00;;;;;;;;;;5100122;28;20214;-65
2023/08/11 03:17:19;;;;;;;3.05;2.20;;;;;;;;;;5100575;28;20235;-65
2023/08/11 03:19:47;;;;;;;2.58;2.38;;;;;;;;;;5100121;28;20491;-65
2023/08/11 03:22:17;;;;;;;2.50;2.30;;;;;;;;;;5100303;28;20218;-65
2023/08/11 03:24:47;;;;;;;2.20;2.00;;;;;;;;;;5099225;28;20232;-65
2023/08/11 03:27:14;;;;;;;2.40;2.20;;;;;;;;;;5099303;28;20251;-65
2023/08/11 03:29:42;;;;;;;2.22;2.13;;;;;;;;;;5100171;28;20227;-65
2023/08/11 03:32:10;;;;;;;2.30;2.20;;;;;;;;;;5100221;28;20203;-65
2023/08/11 03:34:38;;;;;;;2.15;2.05;;;;;;;;;;5099662;28;20207;-65
2023/08/11 03:37:06;;;;;;;3.05;2.03;;;;;;;;;;5099317;28;20230;-65
2023/08/11 03:39:34;;;;;;;2.28;2.17;;;;;;;;;;5099432;28;20230;-65
2023/08/11 03:42:03;;;;;;;3.00;2.10;;;;;;;;;;5099857;28;20246;-66
2023/08/11 03:44:30;;;;;;;2.22;2.08;;;;;;;;;;5099195;28;20294;-65
2023/08/11 03:46:58;;;;;;;2.30;2.10;;;;;;;;;;5099648;28;20208;-65
2023/08/11 03:49:25;;;;;;;2.33;2.13;;;;;;;;;;5099009;28;20218;-65
2023/08/11 03:51:52;;;;;;;2.10;2.00;;;;;;;;;;5099102;28;20239;-65
2023/08/11 03:54:20;;;;;;;2.00;1.90;;;;;;;;;;5098881;28;20301;-65
2023/08/11 03:56:47;;;;;;;2.75;2.00;;;;;;;;;;5098853;28;20691;-66
2023/08/11 03:59:16;;;;;;;2.28;2.17;;;;;;;;;;5098500;28;20204;-65
2023/08/11 04:01:44;;;;;;;2.47;2.20;;;;;;;;;;5099177;28;20284;-65
2023/08/11 04:04:11;;;;;;;2.08;1.98;;;;;;;;;;5099192;28;20204;-65
2023/08/11 04:06:39;;;;;;;2.40;2.20;;;;;;;;;;5099497;28;20206;-65
2023/08/11 04:09:06;;;;;;;2.17;1.88;;;;;;;;;;5099072;28;20290;-65
2023/08/11 04:11:34;;;;;;;2.30;2.20;;;;;;;;;;5098958;28;20199;-65
2023/08/11 04:14:01;;;;;;;2.45;2.25;;;;;;;;;;5098999;28;20211;-65
2023/08/11 04:16:30;;;;;;;2.15;1.95;;;;;;;;;;5098846;28;20227;-65
2023/08/11 04:18:58;;;;;;;2.65;2.20;;;;;;;;;;5098546;28;20567;-65
2023/08/11 04:21:25;;;;;;;2.47;2.28;;;;;;;;;;5098475;28;20203;-65
2023/08/11 04:23:52;;;;;;;2.15;2.05;;;;;;;;;;5098948;28;20210;-65
2023/08/11 04:26:20;;;;;;;2.22;1.92;;;;;;;;;;5098555;28;20200;-65
2023/08/11 04:28:48;;;;;;;2.05;1.90;;;;;;;;;;5098557;28;20250;-65
2023/08/11 04:31:15;;;;;;;2.10;2.00;;;;;;;;;;5097683;28;20231;-65
2023/08/11 04:33:44;;;;;;;2.00;1.90;;;;;;;;;;5098772;28;20246;-65
2023/08/11 04:36:13;;;;;;;2.13;2.03;;;;;;;;;;5099030;28;20538;-65
2023/08/11 04:38:40;;;;;;;2.20;2.00;;;;;;;;;;5098542;28;20211;-66
2023/08/11 04:41:07;;;;;;;2.03;1.92;;;;;;;;;;5097953;28;20310;-65
2023/08/11 04:43:35;;;;;;;1.92;1.83;;;;;;;;;;5098652;28;20244;-65
2023/08/11 04:46:03;;;;;;;2.30;2.10;;;;;;;;;;5097890;28;20298;-65
2023/08/11 04:48:31;;;;;;;2.47;1.90;;;;;;;;;;5097900;28;20233;-65
2023/08/11 04:51:00;;;;;;;2.10;2.00;;;;;;;;;;5098047;28;20214;-65
2023/08/11 04:53:27;;;;;;;2.20;2.00;;;;;;;;;;5097594;28;20314;-65
2023/08/11 04:55:54;;;;;;;2.53;2.33;;;;;;;;;;5096667;28;20267;-65
2023/08/11 04:58:22;;;;;;;2.13;1.95;;;;;;;;;;5096721;28;20721;-65
2023/08/11 05:00:50;;;;;;;2.72;1.95;;;;;;;;;;5097703;28;20199;-65
2023/08/11 05:03:18;;;;;;;2.20;2.05;;;;;;;;;;5097453;28;20291;-65
2023/08/11 05:05:46;;;;;;;2.17;1.90;;;;;;;;;;5097160;28;20210;-65
2023/08/11 05:08:15;;;;;;;1.80;1.70;;;;;;;;;;5097032;28;20191;-65
2023/08/11 05:10:42;;;;;;;2.08;1.98;;;;;;;;;;5096098;28;20239;-65
2023/08/11 05:13:10;;;;;;;2.20;2.10;;;;;;;;;;5097510;28;20534;-65
2023/08/11 05:15:38;;;;;;;2.25;2.15;;;;;;;;;;5097221;28;20200;-65
2023/08/11 05:18:06;;;;;;;2.17;1.90;;;;;;;;;;5096819;28;20292;-65
2023/08/11 05:20:33;;;;;;;2.40;2.20;;;;;;;;;;5096667;28;20203;-65
2023/08/11 05:23:01;;;;;;;2.20;2.00;;;;;;;;;;5097524;28;20234;-65
2023/08/11 05:25:30;;;;;;;2.38;2.00;;;;;;;;;;5096972;28;20210;-66
2023/08/11 05:27:58;;;;;;;2.28;2.10;;;;;;;;;;5097604;28;20210;-65
2023/08/11 05:30:27;;;;;;;2.03;1.92;;;;;;;;;;5097405;28;20302;-65
2023/08/11 05:32:56;;;;;;;2.17;2.03;;;;;;;;;;5097845;28;20203;-65
2023/08/11 05:35:24;;;;;;;2.08;1.98;;;;;;;;;;5097383;28;20204;-65
2023/08/11 05:37:51;;;;;;;2.28;1.92;;;;;;;;;;5097386;28;20503;-65
2023/08/11 05:40:19;;;;;;;2.13;2.03;;;;;;;;;;5096700;28;20206;-65
2023/08/11 05:42:48;;;;;;;2.05;1.90;;;;;;;;;;5096956;28;20294;-65
2023/08/11 05:45:15;;;;;;;2.13;2.03;;;;;;;;;;5097553;28;20630;-65
2023/08/11 05:47:42;;;;;;;2.28;2.08;;;;;;;;;;5096526;28;20609;-65
2023/08/11 05:50:10;;;;;;;2.47;2.28;;;;;;;;;;5096300;28;20214;-65
2023/08/11 05:52:38;;;;;;;2.33;2.13;;;;;;;;;;5096565;28;20705;-65
2023/08/11 05:55:05;;;;;;;2.30;2.20;;;;;;;;;;5096948;28;20214;-65
2023/08/11 05:57:33;;;;;;;2.20;2.10;;;;;;;;;;5096868;28;20516;-65
2023/08/11 06:00:03;;;;;;;2.42;2.22;;;;;;;;;;5097263;28;20466;-65
2023/08/11 06:02:30;;;;;;;2.28;2.08;;;;;;;;;;5096784;28;20580;-65
2023/08/11 06:04:58;;;;;;;2.50;2.30;;;;;;;;;;5096476;28;20252;-65
2023/08/11 06:07:25;;;;;;;1.85;1.75;;;;;;;;;;5096540;28;20417;-65
2023/08/11 06:09:53;;;;;;;2.40;2.20;;;;;;;;;;5096437;28;20207;-65
2023/08/11 06:12:20;;;;;;;2.40;2.20;;;;;;;;;;5096219;28;20203;-65
2023/08/11 06:14:48;;;;;;;2.05;1.83;;;;;;;;;;5096317;28;20235;-65
2023/08/11 06:17:16;;;;;;;2.20;2.05;;;;;;;;;;5096453;28;20570;-65
2023/08/11 06:19:44;;;;;;;2.10;2.00;;;;;;;;;;5096424;28;20294;-65
2023/08/11 06:22:12;;;;;;;2.50;2.30;;;;;;;;;;5096556;28;20298;-65
2023/08/11 06:24:39;;;;;;;2.45;2.25;;;;;;;;;;5095725;28;20265;-66
2023/08/11 06:27:07;;;;;;;2.65;2.45;;;;;;;;;;5095767;28;20420;-65
2023/08/11 06:29:34;;;;;;;2.75;2.55;;;;;;;;;;5096188;28;20298;-65
2023/08/11 06:32:02;;;;;;;2.38;2.28;;;;;;;;;;5096131;28;20203;-65
2023/08/11 06:34:31;;;;;;;2.55;2.35;;;;;;;;;;5096365;28;20268;-65
2023/08/11 06:36:58;;;;;;;2.22;2.13;;;;;;;;;;5095535;28;20267;-65
2023/08/11 06:39:26;;;;;;;2.65;2.28;;;;;;;;;;5095666;28;20302;-65
2023/08/11 06:41:53;;;;;;;1.80;1.70;;;;;;;;;;5095621;28;20204;-65
2023/08/11 06:44:21;;;;;;;2.30;2.20;;;;;;;;;;5095389;28;20239;-65
2023/08/11 06:46:48;;;;;;;2.40;2.20;;;;;;;;;;5096012;28;20306;-65
2023/08/11 06:49:15;;;;;;;2.58;2.38;;;;;;;;;;5096154;28;20873;-65
2023/08/11 06:51:44;;;;;;;2.80;2.60;;;;;;;;;;5096292;28;20236;-65
2023/08/11 06:54:12;;;;;;;2.67;2.47;;;;;;;;;;5095153;28;20311;-65
2023/08/11 06:56:39;;;;;;;2.30;2.20;;;;;;;;;;5095792;28;20568;-65
2023/08/11 06:59:07;;;;;;;2.45;2.28;;;;;;;;;;5095580;28;20498;-65
2023/08/11 07:01:35;;;;;;;2.58;2.38;;;;;;;;;;5097904;28;20741;-65
2023/08/11 07:04:02;;;;;;;2.50;2.30;;;;;;;;;;5099664;28;20265;-65
2023/08/11 07:06:29;;;;;;;2.40;2.20;;;;;;;;;;5099497;28;20208;-65
2023/08/11 07:08:58;;;;;;;2.30;2.10;;;;;;;;;;5099354;28;20206;-65
2023/08/11 07:11:26;;;;;;;2.47;2.33;;;;;;;;;;5098788;28;20286;-65
2023/08/11 07:13:53;;;;;;;2.38;2.17;;;;;;;;;;5099421;28;20204;-65
2023/08/11 07:16:21;;;;;;;2.13;2.03;;;;;;;;;;5098966;28;20195;-65
2023/08/11 07:18:48;;;;;;;2.22;2.05;;;;;;;;;;5098915;28;20323;-65
2023/08/11 07:21:15;;;;;;;2.20;2.10;;;;;;;;;;5099098;28;20306;-65
2023/08/11 07:23:43;;;;;;;2.10;2.00;;;;;;;;;;5098879;28;20231;-65
2023/08/11 07:26:12;;;;;;;2.50;2.30;;;;;;;;;;5099230;28;20264;-65
2023/08/11 07:28:40;;;;;;;2.13;1.98;;;;;;;;;;5099507;28;20196;-65
2023/08/11 07:31:07;;;;;;;1.95;1.85;;;;;;;;;;5098805;28;20219;-65
2023/08/11 07:33:35;;;;;;;2.15;2.03;;;;;;;;;;5099204;28;20265;-65
2023/08/11 07:36:02;;;;;;;2.13;2.03;;;;;;;;;;5098421;28;20250;-65
2023/08/11 07:38:30;;;;;;;2.20;2.00;;;;;;;;;;5098216;28;20223;-65
2023/08/11 07:40:57;;;;;;;2.17;2.08;;;;;;;;;;5098602;28;20600;-65
2023/08/11 07:43:26;;;;;;;2.05;1.95;;;;;;;;;;5098356;28;20226;-65
2023/08/11 07:45:54;;;;;;;2.00;1.90;;;;;;;;;;5098272;28;20265;-65
2023/08/11 07:48:21;;;;;;;2.08;1.98;;;;;;;;;;5098449;28;20277;-65
2023/08/11 07:50:49;;;;;;;2.05;1.95;;;;;;;;;;5097944;28;20195;-65
2023/08/11 07:53:16;;;;;;;2.20;2.00;;;;;;;;;;5098039;28;20273;-65
2023/08/11 07:55:44;;;;;;;2.10;1.90;;;;;;;;;;5097744;28;20203;-65
2023/08/11 07:58:11;;;;;;;2.25;2.05;;;;;;;;;;5098330;28;20224;-65
2023/08/11 08:00:40;;;;;;;2.13;2.03;;;;;;;;;;5098118;28;20609;-65
2023/08/11 08:03:07;;;;;;;1.98;1.88;;;;;;;;;;5100216;28;20270;-65
2023/08/11 08:05:35;;;;;;;2.00;1.90;;;;;;;;;;5097264;28;20299;-65
2023/08/11 08:08:03;;;;;;;2.00;1.90;;;;;;;;;;5097796;28;20211;-65
2023/08/11 08:10:31;;;;;;;1.75;1.65;;;;;;;;;;5097789;28;20195;-65
2023/08/11 08:12:58;;;;;;;2.03;1.92;;;;;;;;;;5097219;28;20213;-65
2023/08/11 08:15:28;;;;;;;1.98;1.83;;;;;;;;;;5097986;28;20213;-64
2023/08/11 08:17:57;;;;;;;2.05;1.95;;;;;;;;;;5097767;28;20289;-65
2023/08/11 08:20:24;;;;;;;2.30;2.10;;;;;;;;;;5096986;28;20239;-65
2023/08/11 08:22:52;;;;;;;1.85;1.75;;;;;;;;;;5097230;28;20671;-65
2023/08/11 08:25:19;;;;;;;1.80;1.70;;;;;;;;;;5096768;28;20304;-65
2023/08/11 08:27:47;;;;;;;2.00;1.90;;;;;;;;;;5097076;28;20231;-65
2023/08/11 08:30:15;;;;;;;2.40;2.20;;;;;;;;;;5096009;28;20210;-65
2023/08/11 08:32:42;;;;;;;2.00;1.90;;;;;;;;;;5096850;28;20269;-65
2023/08/11 08:35:11;;;;;;;2.13;2.03;;;;;;;;;;5097221;28;20204;-65
2023/08/11 08:37:39;;;;;;;2.20;2.08;;;;;;;;;;5097025;28;20292;-65
2023/08/11 08:40:08;;;;;;;2.30;2.10;;;;;;;;;;5113054;28;20215;-65
2023/08/11 08:42:35;;;;;;;2.28;2.08;;;;;;;;;;5116507;28;20298;-65
2023/08/11 08:45:03;;;;;;;2.30;2.10;;;;;;;;;;5117592;28;20599;-65
2023/08/11 08:47:31;;;;;;;2.15;1.95;;;;;;;;;;5117142;28;20790;-65
2023/08/11 08:49:59;;;;;;;2.20;2.10;;;;;;;;;;5117672;28;20202;-65
2023/08/11 08:52:28;;;;;;;1.95;1.85;;;;;;;;;;5117169;28;20260;-65
2023/08/11 08:54:56;;;;;;;2.60;2.10;;;;;;;;;;5116727;28;20575;-64
2023/08/11 08:57:25;;;;;;;2.15;2.05;;;;;;;;;;5116785;28;20234;-65
2023/08/11 08:59:52;;;;;;;2.10;1.92;;;;;;;;;;5117047;28;20228;-65
2023/08/11 09:02:21;;;;;;;2.10;2.00;;;;;;;;;;5114876;28;20221;-65
2023/08/11 09:04:48;;;;;;;2.13;1.90;;;;;;;;;;5116773;28;20206;-65
2023/08/11 09:07:16;;;;;;;2.17;2.08;;;;;;;;;;5116866;28;20622;-65
2023/08/11 09:09:45;;;;;;;2.53;2.33;;;;;;;;;;5117208;28;20195;-65
2023/08/11 09:12:12;;;;;;;2.00;1.90;;;;;;;;;;5117112;28;20213;-65
2023/08/11 09:14:40;;;;;;;2.85;2.17;;;;;;;;;;5116416;28;20207;-65
2023/08/11 09:17:07;;;;;;;2.30;2.10;;;;;;;;;;5097137;28;20208;-65
2023/08/11 09:19:36;;;;;;;2.17;1.98;;;;;;;;;;5096324;28;20227;-64
2023/08/11 09:22:03;;;;;;;2.75;2.53;;;;;;;;;;5095844;28;20239;-65
2023/08/11 09:24:31;;;;;;;2.35;2.15;;;;;;;;;;5095035;28;20283;-65
2023/08/11 09:27:00;;;;;;;2.35;2.10;;;;;;;;;;5095886;28;20484;-65
2023/08/11 09:29:28;;;;;;;2.03;1.92;;;;;;;;;;5096432;28;20218;-65
2023/08/11 09:31:56;;;;;;;2.38;2.17;;;;;;;;;;5095568;28;20290;-65
2023/08/11 09:34:24;;;;;;;2.47;2.28;;;;;;;;;;5096349;28;20203;-65
2023/08/11 09:36:51;;;;;;;2.15;1.95;;;;;;;;;;5095969;28;20227;-65
2023/08/11 09:39:20;;;;;;;2.10;2.00;;;;;;;;;;5095635;28;20220;-65
2023/08/11 09:41:48;;;;;;;2.15;2.05;;;;;;;;;;5095691;28;20219;-65
2023/08/11 09:44:18;;;;;;;2.25;2.05;;;;;;;;;;5095823;28;20284;-65
2023/08/11 09:46:46;;;;;;;2.00;1.90;;;;;;;;;;5094544;28;20203;-65
2023/08/11 09:49:13;;;;;;;2.17;2.08;;;;;;;;;;5095347;28;20639;-65
2023/08/11 09:51:42;;;;;;;2.03;1.92;;;;;;;;;;5095904;28;20329;-65
2023/08/11 09:54:10;;;;;;;2.17;2.00;;;;;;;;;;5094521;28;20203;-65
2023/08/11 09:56:38;;;;;;;2.17;2.08;;;;;;;;;;5095694;28;20214;-65
2023/08/11 09:59:06;;;;;;;2.15;1.95;;;;;;;;;;5094922;28;20227;-65
2023/08/11 10:01:36;;;;;;;2.10;1.90;;;;;;;;;;5095704;28;20203;-65
2023/08/11 10:04:10;;;;;;;2.13;2.03;;;;;;;;;;5095833;28;20230;-65
2023/08/11 10:06:39;;;;;;;2.45;2.03;;;;;;;;;;5095558;28;20207;-65
2023/08/11 10:09:08;;;;;;;1.90;1.80;;;;;;;;;;5095497;28;20310;-65
2023/08/11 10:11:36;;;;;;;1.90;1.80;;;;;;;;;;5094616;28;20686;-65
2023/08/11 10:14:05;;;;;;;2.15;1.95;;;;;;;;;;5095331;28;20302;-65
2023/08/11 10:16:32;;;;;;;2.33;2.13;;;;;;;;;;5095250;28;20808;-65
2023/08/11 10:19:02;;;;;;;2.17;2.08;;;;;;;;;;5094783;28;20227;-65
2023/08/11 10:21:29;;;;;;;2.05;1.95;;;;;;;;;;5094966;28;20732;-65
2023/08/11 10:23:58;;;;;;;2.22;2.03;;;;;;;;;;5094663;28;20213;-65
2023/08/11 10:26:26;;;;;;;1.98;1.75;;;;;;;;;;5095067;28;20301;-65
2023/08/11 10:28:55;;;;;;;2.03;1.92;;;;;;;;;;5076567;28;20302;-65
2023/08/11 10:31:25;;;;;;;2.25;2.08;;;;;;;;;;5094510;28;20214;-65
2023/08/11 10:33:52;;;;;;;2.30;2.10;;;;;;;;;;5094624;28;20214;-65
2023/08/11 10:36:24;;;;;;;2.10;2.00;;;;;;;;;;5098112;28;20206;-66
2023/08/11 10:39:09;;;;;;;2.30;2.10;;;;;;;;;;5098747;28;20502;-65
2023/08/11 10:41:37;;;;;;;2.05;1.95;;;;;;;;;;5097860;28;20303;-65
2023/08/11 10:44:06;;;;;;;2.30;2.13;;;;;;;;;;5098927;28;20250;-65
2023/08/11 10:46:34;;;;;;;2.10;1.92;;;;;;;;;;5099293;28;20204;-65
2023/08/11 10:49:19;;;;;;;2.30;2.10;;;;;;;;;;5098148;28;20192;-65
2023/08/11 10:51:48;;;;;;;2.30;2.10;;;;;;;;;;5098197;28;20244;-65
2023/08/11 10:54:20;;;;;;;1.83;1.73;;;;;;;;;;5097955;28;20298;-65
2023/08/11 10:56:48;;;;;;;2.00;1.90;;;;;;;;;;5098425;28;20299;-65
2023/08/11 10:59:16;;;;;;;2.00;1.90;;;;;;;;;;5098194;28;20744;-65
2023/08/11 11:01:45;;;;;;;2.33;2.10;;;;;;;;;;5097031;28;20195;-65
2023/08/11 11:04:13;;;;;;;2.30;2.10;;;;;;;;;;5097993;28;20614;-65
2023/08/11 11:06:41;;;;;;;2.10;2.00;;;;;;;;;;5096839;28;20242;-65
2023/08/11 11:09:10;;;;;;;2.17;1.90;;;;;;;;;;5097228;28;20249;-65
2023/08/11 11:11:37;;;;;;;2.08;1.98;;;;;;;;;;5098287;28;20196;-65
2023/08/11 11:14:05;;;;;;;2.38;2.17;;;;;;;;;;5097995;28;20286;-65
2023/08/11 11:16:33;;;;;;;2.00;1.90;;;;;;;;;;5097596;28;20473;-65
2023/08/11 11:19:01;;;;;;;2.03;1.83;;;;;;;;;;5097918;28;20626;-65
2023/08/11 11:21:29;;;;;;;1.85;1.73;;;;;;;;;;5097528;28;20211;-65
2023/08/11 11:23:56;;;;;;;2.35;1.80;;;;;;;;;;5098255;28;20214;-64
2023/08/11 11:26:26;;;;;;;1.90;1.80;;;;;;;;;;5097731;28;20239;-64
2023/08/11 11:28:54;;;;;;;2.47;1.77;;;;;;;;;;5097438;28;20461;-64
2023/08/11 11:31:23;;;;;;;1.88;1.77;;;;;;;;;;5097023;28;20265;-64
2023/08/11 11:33:50;;;;;;;2.25;2.15;;;;;;;;;;5095788;28;20207;-64
2023/08/11 11:36:19;;;;;;;2.17;1.98;;;;;;;;;;5097857;28;20237;-64
2023/08/11 11:38:47;;;;;;;3.40;2.10;;;;;;;;;;5097358;28;20304;-64
2023/08/11 11:41:15;;;;;;;2.13;1.92;;;;;;;;;;5097294;28;20264;-64
2023/08/11 11:43:45;;;;;;;2.55;1.83;;;;;;;;;;5097303;28;20214;-64
2023/08/11 11:46:15;;;;;;;2.30;2.10;;;;;;;;;;5096685;28;20247;-64
2023/08/11 11:48:44;;;;;;;2.35;2.00;;;;;;;;;;5097909;28;20699;-64
2023/08/11 11:51:12;;;;;;;2.20;2.05;;;;;;;;;;5097342;28;20239;-64
2023/08/11 11:53:39;;;;;;;2.10;2.00;;;;;;;;;;5097724;28;20246;-64
2023/08/11 11:56:08;;;;;;;2.38;2.17;;;;;;;;;;5097496;28;20206;-64
2023/08/11 11:58:38;;;;;;;2.00;1.90;;;;;;;;;;5097587;28;20195;-64
2023/08/11 12:01:14;;;;;;;2.15;1.98;;;;;;;;;;5097000;28;20333;-64
2023/08/11 12:03:42;;;;;;;2.30;1.92;;;;;;;;;;5096684;28;20206;-64
2023/08/11 12:06:10;;;;;;;2.13;2.00;;;;;;;;;;5096654;28;20611;-64
2023/08/11 12:08:39;;;;;;;2.42;2.22;;;;;;;;;;5096733;28;20294;-64
2023/08/11 12:11:06;;;;;;;2.67;2.47;;;;;;;;;;5096551;28;20751;-64
2023/08/11 12:13:38;;;;;;;2.40;2.20;;;;;;;;;;5096428;28;20629;-64
2023/08/11 12:16:07;;;;;;;2.45;2.25;;;;;;;;;;5097159;28;20313;-64
2023/08/11 12:18:36;;;;;;;2.25;2.15;;;;;;;;;;5096371;28;20211;-64
2023/08/11 12:21:04;;;;;;;2.30;2.17;;;;;;;;;;5096875;28;20299;-64
2023/08/11 12:23:32;;;;;;;2.40;2.20;;;;;;;;;;5096553;28;20591;-64
2023/08/11 12:25:59;;;;;;;3.63;2.22;;;;;;;;;;5096052;28;20204;-64
2023/08/11 12:28:27;;;;;;;2.50;2.30;;;;;;;;;;5097411;28;20203;-64
2023/08/11 12:30:55;;;;;;;2.42;2.13;;;;;;;;;;5096325;28;20199;-64
2023/08/11 12:33:22;;;;;;;2.33;2.13;;;;;;;;;;5095727;28;20286;-64
2023/08/11 12:35:51;;;;;;;2.03;1.92;;;;;;;;;;5095904;28;20206;-64
2023/08/11 12:38:20;;;;;;;2.35;2.15;;;;;;;;;;5095748;28;20236;-64
2023/08/11 12:40:48;;;;;;;2.20;2.00;;;;;;;;;;5095580;28;20223;-64
2023/08/11 12:43:16;;;;;;;2.42;2.22;;;;;;;;;;5095750;28;20242;-64
2023/08/11 12:45:44;;;;;;;2.42;2.30;;;;;;;;;;5095028;28;20666;-64
2023/08/11 12:48:12;;;;;;;2.50;2.30;;;;;;;;;;5095018;28;20207;-64
2023/08/11 12:50:40;;;;;;;2.25;2.08;;;;;;;;;;5094909;28;20300;-64
2023/08/11 12:53:10;;;;;;;2.63;2.20;;;;;;;;;;5094807;28;20334;-65
2023/08/11 12:55:38;;;;;;;2.30;2.03;;;;;;;;;;5095895;28;20429;-65
2023/08/11 12:58:05;;;;;;;2.67;2.47;;;;;;;;;;5096091;28;20200;-64
2023/08/11 13:00:35;;;;;;;2.83;2.20;;;;;;;;;;5094853;28;20622;-65
2023/08/11 13:03:02;;;;;;;4.07;2.22;;;;;;;;;;5095230;28;20285;-64
2023/08/11 13:05:30;;;;;;;5.63;2.20;;;;;;;;;;5095891;28;20203;-65
2023/08/11 13:07:58;;;;;;;3.33;1.90;;;;;;;;;;5096011;28;20203;-65
2023/08/11 13:10:27;;;;;;;2.42;2.22;;;;;;;;;;5095284;28;20203;-65
2023/08/11 13:12:55;;;;;;;2.95;2.30;;;;;;;;;;5094912;28;20196;-65
2023/08/11 13:15:23;;;;;;;2.28;2.17;;;;;;;;;;5095518;28;20640;-64
2023/08/11 13:17:50;;;;;;;2.03;1.90;;;;;;;;;;5095125;28;20200;-64
2023/08/11 13:20:18;;;;;;;1.98;1.88;;;;;;;;;;5095786;28;20242;-65
2023/08/11 13:22:46;;;;;;;2.53;1.90;;;;;;;;;;5094631;28;20204;-65
2023/08/11 13:25:14;;;;;;;1.92;1.83;;;;;;;;;;5095369;28;20211;-65
2023/08/11 13:27:43;;;;;;;2.47;2.28;;;;;;;;;;5095101;28;20207;-64
2023/08/11 13:30:11;;;;;;;2.10;1.90;;;;;;;;;;5094656;28;20195;-65
2023/08/11 13:32:38;;;;;;;2.22;2.00;;;;;;;;;;5095823;28;20493;-64
2023/08/11 13:35:08;;;;;;;2.53;2.30;;;;;;;;;;5094863;28;20211;-65
2023/08/11 13:37:36;;;;;;;2.13;1.80;;;;;;;;;;5095150;28;20472;-65
2023/08/11 13:40:05;;;;;;;2.38;2.08;;;;;;;;;;5094739;28;20231;-65
2023/08/11 13:42:32;;;;;;;2.30;2.10;;;;;;;;;;5094979;28;20611;-64
2023/08/11 13:45:02;;;;;;;2.03;1.92;;;;;;;;;;5095051;28;20237;-64
2023/08/11 13:47:29;;;;;;;2.20;2.10;;;;;;;;;;5095642;28;20660;-64
2023/08/11 13:49:56;;;;;;;2.45;2.05;;;;;;;;;;5094609;28;20689;-64
2023/08/11 13:52:24;;;;;;;2.38;2.28;;;;;;;;;;5094909;28;20344;-64
2023/08/11 13:54:58;;;;;;;2.15;2.03;;;;;;;;;;5093975;28;20204;-64
2023/08/11 13:57:25;;;;;;;2.38;2.00;;;;;;;;;;5094688;28;20203;-64
2023/08/11 13:59:53;;;;;;;2.40;2.20;;;;;;;;;;5094933;28;20637;-64
2023/08/11 14:02:22;;;;;;;2.50;2.30;;;;;;;;;;5094445;28;20676;-64
2023/08/11 14:04:50;;;;;;;2.17;2.08;;;;;;;;;;5094987;28;20204;-64
2023/08/11 14:07:17;;;;;;;2.60;2.20;;;;;;;;;;5095022;28;20231;-63
2023/08/11 14:09:45;;;;;;;2.30;2.10;;;;;;;;;;5095641;28;20769;-63
2023/08/11 14:12:14;;;;;;;2.15;2.05;;;;;;;;;;5098335;28;20203;-63
2023/08/11 14:14:41;;;;;;;1.95;1.85;;;;;;;;;;5099420;28;20282;-63
2023/08/11 14:17:09;;;;;;;2.05;1.95;;;;;;;;;;5099224;28;20295;-63
2023/08/11 14:19:38;;;;;;;2.10;2.00;;;;;;;;;;5098471;28;20216;-63
2023/08/11 14:22:05;;;;;;;2.28;2.00;;;;;;;;;;5099682;28;20253;-63
2023/08/11 14:24:32;;;;;;;2.60;2.10;;;;;;;;;;5098856;28;20214;-63
2023/08/11 14:27:00;;;;;;;1.90;1.80;;;;;;;;;;5098401;28;20211;-63
2023/08/11 14:29:27;;;;;;;2.00;1.80;;;;;;;;;;5098498;28;20290;-63
2023/08/11 14:31:55;;;;;;;2.03;1.70;;;;;;;;;;5097295;28;20295;-63
2023/08/11 14:34:22;;;;;;;1.85;1.70;;;;;;;;;;5097676;28;20203;-63
2023/08/11 14:36:51;;;;;;;2.03;1.85;;;;;;;;;;5097981;28;20211;-63
2023/08/11 14:39:18;;;;;;;1.98;1.88;;;;;;;;;;5098089;28;20685;-63
2023/08/11 14:41:47;;;;;;;1.92;1.83;;;;;;;;;;5097639;28;20291;-63
2023/08/11 14:44:15;;;;;;;1.83;1.73;;;;;;;;;;5097665;28;20231;-63
2023/08/11 14:46:43;;;;;;;1.80;1.65;;;;;;;;;;5097916;28;20195;-63
2023/08/11 14:49:10;;;;;;;1.70;1.60;;;;;;;;;;5097688;28;20204;-63